Time;durP1;ratioP1;P1;durP2;ratioP2;P2;SDS_P1;SDS_P2;PMS_P1;PMS_P2;Temp;Humidity;BMP_temperature;BMP_pressure;BME280_temperature;BME280_humidity;BME280_pressure;Samples;Min_cycle;Max_cycle;Signal;HPM_P1;HPM_P2
2022/02/22 00:02:05;;;;;;;10.07;2.22;;;10.10;83.80;;;;;;4992265;28;20023;-76
2022/02/22 00:04:34;;;;;;;14.13;3.10;;;10.10;83.90;;;;;;4994647;28;20033;-76
2022/02/22 00:07:00;;;;;;;16.70;3.35;;;10.10;84.00;;;;;;4995466;28;20031;-76
2022/02/22 00:09:25;;;;;;;15.15;3.13;;;10.10;84.00;;;;;;4993812;28;20549;-77
2022/02/22 00:11:51;;;;;;;16.55;2.85;;;10.10;84.00;;;;;;4995515;28;20106;-77
2022/02/22 00:14:17;;;;;;;14.90;3.10;;;10.10;84.10;;;;;;4993963;28;20662;-77
2022/02/22 00:16:42;;;;;;;14.68;3.22;;;10.10;84.20;;;;;;4995205;28;20031;-77
2022/02/22 00:19:08;;;;;;;16.77;3.22;;;10.10;84.10;;;;;;5010237;28;20046;-76
2022/02/22 00:21:33;;;;;;;13.63;2.67;;;10.10;84.00;;;;;;5010223;28;20101;-76
2022/02/22 00:23:59;;;;;;;12.48;2.90;;;10.10;83.80;;;;;;4994149;28;20027;-76
2022/02/22 00:26:24;;;;;;;14.38;3.70;;;10.10;83.80;;;;;;4994068;28;20504;-77
2022/02/22 00:28:50;;;;;;;14.48;2.83;;;10.10;83.80;;;;;;4993684;28;20030;-77
2022/02/22 00:31:15;;;;;;;15.50;3.35;;;10.10;83.80;;;;;;4995433;28;20033;-75
2022/02/22 00:33:41;;;;;;;14.00;3.30;;;10.10;83.80;;;;;;4993954;28;20108;-77
2022/02/22 00:36:07;;;;;;;15.25;3.33;;;10.10;83.90;;;;;;4993409;28;20460;-77
2022/02/22 00:38:32;;;;;;;17.77;3.55;;;10.00;84.00;;;;;;5009282;28;20026;-76
2022/02/22 00:40:58;;;;;;;14.48;3.00;;;10.10;83.90;;;;;;5009609;28;20018;-76
2022/02/22 00:43:24;;;;;;;14.02;3.30;;;10.10;83.80;;;;;;5008967;28;20442;-77
2022/02/22 00:45:49;;;;;;;14.55;3.15;;;10.10;83.80;;;;;;5010153;28;20038;-76
2022/02/22 00:48:15;;;;;;;16.35;3.38;;;10.00;83.70;;;;;;5009690;28;20113;-76
2022/02/22 00:50:40;;;;;;;15.32;3.60;;;10.10;83.80;;;;;;4994806;28;20033;-76
2022/02/22 00:53:06;;;;;;;13.30;3.22;;;10.10;83.70;;;;;;5009768;28;20027;-76
2022/02/22 00:55:32;;;;;;;12.07;3.05;;;10.10;83.70;;;;;;5009924;28;20479;-77
2022/02/22 00:57:58;;;;;;;16.98;3.65;;;10.10;83.70;;;;;;4993470;28;20062;-75
2022/02/22 01:00:23;;;;;;;11.60;3.10;;;10.10;83.80;;;;;;5009472;28;20022;-77
2022/02/22 01:02:49;;;;;;;18.05;3.75;;;10.10;83.80;;;;;;5010663;28;20026;-77
2022/02/22 01:05:15;;;;;;;18.20;3.80;;;10.10;83.90;;;;;;5004106;28;20033;-76
2022/02/22 01:07:41;;;;;;;18.05;3.47;;;10.10;83.90;;;;;;4994398;28;20080;-76
2022/02/22 01:10:07;;;;;;;14.57;3.38;;;10.10;83.80;;;;;;4981254;28;20026;-77
2022/02/22 01:12:33;;;;;;;15.63;3.10;;;10.10;83.80;;;;;;4973770;28;20031;-76
2022/02/22 01:14:58;;;;;;;14.40;3.90;;;10.00;83.60;;;;;;4989274;28;20033;-77
2022/02/22 01:17:24;;;;;;;17.08;3.55;;;10.00;83.70;;;;;;4973524;28;20030;-76
2022/02/22 01:19:49;;;;;;;17.83;3.80;;;10.10;83.70;;;;;;4973349;28;20027;-77
2022/02/22 01:22:15;;;;;;;12.90;3.20;;;10.10;83.70;;;;;;4989728;28;20377;-77
2022/02/22 01:24:41;;;;;;;12.45;3.58;;;10.10;83.60;;;;;;4974865;28;20396;-76
2022/02/22 01:27:07;;;;;;;15.80;3.60;;;10.10;83.60;;;;;;4973544;28;20050;-76
2022/02/22 01:29:33;;;;;;;15.93;3.25;;;10.10;83.60;;;;;;4974410;28;20034;-76
2022/02/22 01:31:59;;;;;;;16.38;3.58;;;10.00;83.70;;;;;;4973448;28;20031;-76
2022/02/22 01:34:25;;;;;;;16.88;3.30;;;10.00;83.60;;;;;;4974620;28;20478;-77
2022/02/22 01:36:50;;;;;;;15.38;3.55;;;10.10;83.60;;;;;;4973174;28;20472;-77
2022/02/22 01:39:16;;;;;;;17.58;3.83;;;10.00;83.60;;;;;;4972691;28;20117;-76
2022/02/22 01:41:45;;;;;;;13.90;3.10;;;10.10;83.60;;;;;;4989448;28;20023;-76
2022/02/22 01:44:12;;;;;;;15.13;3.40;;;10.00;83.50;;;;;;4974383;28;20087;-77
2022/02/22 01:46:38;;;;;;;13.15;3.22;;;10.00;83.50;;;;;;4974366;28;20034;-76
2022/02/22 01:49:03;;;;;;;13.75;2.83;;;10.10;83.50;;;;;;4974047;28;20034;-77
2022/02/22 01:51:29;;;;;;;15.65;3.15;;;10.00;83.50;;;;;;4972983;28;20026;-77
2022/02/22 01:53:54;;;;;;;20.10;4.13;;;10.00;83.40;;;;;;4974195;28;20035;-76
2022/02/22 01:56:22;;;;;;;16.55;3.50;;;10.00;83.40;;;;;;4974288;28;20030;-77
2022/02/22 01:58:48;;;;;;;14.55;2.97;;;10.00;83.30;;;;;;4973624;28;20023;-77
2022/02/22 02:01:13;;;;;;;15.43;3.45;;;10.10;83.30;;;;;;4974049;28;20039;-77
2022/02/22 02:03:39;;;;;;;13.27;3.47;;;10.10;83.30;;;;;;4973921;28;20034;-76
2022/02/22 02:06:05;;;;;;;13.85;3.58;;;10.10;83.20;;;;;;4974150;28;20050;-77
2022/02/22 02:08:31;;;;;;;15.38;4.05;;;10.00;83.20;;;;;;4977212;28;20057;-77
2022/02/22 02:10:57;;;;;;;16.48;3.70;;;10.00;83.20;;;;;;4992024;28;20022;-77
2022/02/22 02:13:23;;;;;;;13.85;3.58;;;10.00;83.20;;;;;;5008492;28;20050;-76
2022/02/22 02:15:49;;;;;;;16.83;3.88;;;10.00;83.20;;;;;;4992151;28;20061;-76
2022/02/22 02:18:14;;;;;;;15.50;3.50;;;10.00;83.20;;;;;;4992896;28;20033;-76
2022/02/22 02:20:40;;;;;;;17.48;3.63;;;10.00;83.20;;;;;;4992981;28;20030;-76
2022/02/22 02:23:05;;;;;;;14.48;3.38;;;10.00;83.20;;;;;;5008259;28;20022;-76
2022/02/22 02:25:31;;;;;;;13.40;3.15;;;10.00;83.20;;;;;;4991888;28;20117;-77
2022/02/22 02:27:57;;;;;;;15.57;3.88;;;10.00;83.30;;;;;;4991701;28;20120;-77
2022/02/22 02:30:22;;;;;;;16.17;3.40;;;10.00;83.50;;;;;;4992717;28;20052;-76
2022/02/22 02:32:48;;;;;;;19.40;4.05;;;10.00;83.30;;;;;;4993140;28;20080;-77
2022/02/22 02:35:13;;;;;;;17.35;3.47;;;10.00;83.10;;;;;;4992919;28;20109;-76
2022/02/22 02:37:41;;;;;;;14.60;3.85;;;10.00;83.60;;;;;;4991223;28;20034;-76
2022/02/22 02:40:09;;;;;;;17.00;3.58;;;10.00;83.10;;;;;;4992464;28;20483;-77
2022/02/22 02:42:41;;;;;;;18.00;3.63;;;10.00;83.00;;;;;;4992791;28;20402;-76
2022/02/22 02:45:08;;;;;;;17.73;3.88;;;10.00;83.00;;;;;;5008194;28;20022;-77
2022/02/22 02:47:33;;;;;;;15.20;3.53;;;10.00;83.00;;;;;;5007915;28;20034;-76
2022/02/22 02:49:59;;;;;;;15.07;3.50;;;10.00;83.00;;;;;;4992403;28;20030;-77
2022/02/22 02:52:24;;;;;;;17.23;3.80;;;10.00;83.00;;;;;;4991455;28;20035;-77
2022/02/22 02:54:50;;;;;;;16.05;3.42;;;10.00;83.00;;;;;;5008067;28;20036;-77
2022/02/22 02:57:15;;;;;;;16.35;3.90;;;10.00;83.00;;;;;;4992685;28;20054;-76
2022/02/22 02:59:41;;;;;;;15.05;4.00;;;10.00;83.10;;;;;;4991238;28;20046;-77
2022/02/22 03:02:07;;;;;;;16.30;3.33;;;10.00;83.00;;;;;;4992717;28;20023;-76
2022/02/22 03:04:32;;;;;;;15.88;3.28;;;10.00;83.00;;;;;;4991194;28;20039;-77
2022/02/22 03:06:58;;;;;;;14.13;3.28;;;10.00;82.90;;;;;;4992541;28;20036;-76
2022/02/22 03:09:23;;;;;;;13.00;3.58;;;10.00;82.90;;;;;;4990973;28;20122;-77
2022/02/22 03:11:50;;;;;;;14.93;3.42;;;10.00;82.80;;;;;;5007815;28;20022;-76
2022/02/22 03:14:17;;;;;;;12.18;3.65;;;10.00;82.80;;;;;;4992520;28;20392;-76
2022/02/22 03:16:42;;;;;;;15.73;3.38;;;10.00;82.70;;;;;;5029817;22;20525;-76
2022/02/22 03:19:08;;;;;;;15.48;3.85;;;10.00;82.70;;;;;;5030763;28;20018;-78
2022/02/22 03:21:34;;;;;;;14.25;3.22;;;10.00;82.70;;;;;;5032780;28;20062;-78
2022/02/22 03:24:00;;;;;;;16.33;3.80;;;10.00;82.80;;;;;;5032033;28;20486;-78
2022/02/22 03:26:27;;;;;;;14.20;4.00;;;10.00;82.90;;;;;;5032343;28;20026;-77
2022/02/22 03:28:52;;;;;;;15.77;3.53;;;10.00;82.90;;;;;;5033088;28;20032;-78
2022/02/22 03:31:18;;;;;;;14.63;3.65;;;10.00;82.90;;;;;;5031807;28;20022;-77
2022/02/22 03:33:44;;;;;;;15.57;3.40;;;10.00;82.80;;;;;;5032302;28;20060;-78
2022/02/22 03:36:09;;;;;;;13.90;2.90;;;10.00;82.70;;;;;;5032322;28;20147;-76
2022/02/22 03:38:35;;;;;;;17.10;3.95;;;10.00;82.80;;;;;;5035685;28;20021;-77
2022/02/22 03:41:02;;;;;;;16.52;3.90;;;10.00;82.80;;;;;;5037160;28;20439;-76
2022/02/22 03:43:28;;;;;;;13.18;3.28;;;10.00;82.70;;;;;;5035828;28;20041;-78
2022/02/22 03:45:54;;;;;;;12.73;3.60;;;10.00;82.70;;;;;;5031352;28;20059;-77
2022/02/22 03:48:20;;;;;;;18.23;3.55;;;10.00;82.70;;;;;;5036423;28;20021;-77
2022/02/22 03:50:46;;;;;;;12.93;3.25;;;10.00;82.70;;;;;;5035612;28;20112;-76
2022/02/22 03:53:12;;;;;;;12.80;3.08;;;10.10;82.70;;;;;;5037069;28;20057;-78
2022/02/22 03:55:37;;;;;;;13.20;3.08;;;10.00;82.70;;;;;;5036988;28;20104;-78
2022/02/22 03:58:03;;;;;;;15.18;3.15;;;10.00;82.70;;;;;;5036626;28;20156;-78
2022/02/22 04:00:28;;;;;;;14.77;4.13;;;10.00;82.70;;;;;;5036823;28;20061;-77
2022/02/22 04:02:54;;;;;;;15.02;3.30;;;10.00;82.70;;;;;;5052179;28;20021;-77
2022/02/22 04:05:21;;;;;;;14.93;3.17;;;10.00;82.80;;;;;;5052010;28;20430;-77
2022/02/22 04:07:47;;;;;;;14.45;2.97;;;10.00;82.80;;;;;;5036428;28;20402;-78
2022/02/22 04:10:13;;;;;;;13.68;3.30;;;10.00;82.80;;;;;;5034771;28;20032;-77
2022/02/22 04:12:38;;;;;;;16.88;3.70;;;10.00;82.70;;;;;;5035239;28;20030;-77
2022/02/22 04:15:06;;;;;;;14.63;3.50;;;10.00;82.60;;;;;;5052118;28;20053;-77
2022/02/22 04:17:32;;;;;;;14.10;3.58;;;10.00;82.60;;;;;;5036057;28;20070;-77
2022/02/22 04:19:58;;;;;;;14.88;3.35;;;10.00;82.60;;;;;;5050251;28;20026;-76
2022/02/22 04:22:23;;;;;;;12.38;3.10;;;10.00;82.60;;;;;;5036143;28;20104;-77
2022/02/22 04:24:49;;;;;;;15.98;3.17;;;10.00;82.50;;;;;;5053511;28;20057;-76
2022/02/22 04:27:14;;;;;;;12.38;3.00;;;10.00;82.50;;;;;;5051091;28;20497;-77
2022/02/22 04:29:40;;;;;;;15.32;3.88;;;10.00;82.50;;;;;;5033182;28;20025;-76
2022/02/22 04:32:07;;;;;;;14.20;3.40;;;10.00;82.40;;;;;;5033485;28;20078;-77
2022/02/22 04:34:33;;;;;;;16.55;3.80;;;10.00;82.50;;;;;;5033364;28;20118;-75
2022/02/22 04:36:58;;;;;;;15.18;3.33;;;10.00;82.40;;;;;;5034532;28;20494;-77
2022/02/22 04:39:24;;;;;;;13.80;3.08;;;10.00;82.50;;;;;;5032652;28;20144;-76
2022/02/22 04:41:52;;;;;;;15.60;3.63;;;10.00;82.60;;;;;;5033163;28;20145;-77
2022/02/22 04:44:20;;;;;;;12.40;2.88;;;10.00;82.50;;;;;;5033225;28;20032;-75
2022/02/22 04:46:46;;;;;;;14.23;3.53;;;10.00;82.40;;;;;;5033104;28;20032;-78
2022/02/22 04:49:12;;;;;;;12.23;3.22;;;10.00;82.40;;;;;;5031602;28;20441;-77
2022/02/22 04:51:39;;;;;;;11.13;3.10;;;10.00;82.40;;;;;;5032999;28;20026;-77
2022/02/22 04:54:05;;;;;;;14.43;2.67;;;9.90;82.50;;;;;;5034121;28;20110;-75
2022/02/22 04:56:31;;;;;;;14.50;3.30;;;10.00;82.60;;;;;;5032613;28;20606;-77
2022/02/22 04:58:57;;;;;;;10.75;2.78;;;10.00;82.50;;;;;;5032707;28;20032;-77
2022/02/22 05:01:23;;;;;;;13.65;3.10;;;10.00;82.50;;;;;;5034302;28;20102;-76
2022/02/22 05:03:48;;;;;;;11.48;2.85;;;10.00;82.50;;;;;;5034370;28;20017;-77
2022/02/22 05:06:14;;;;;;;15.95;3.38;;;10.00;82.60;;;;;;5033265;28;20030;-77
2022/02/22 05:08:40;;;;;;;13.90;3.30;;;10.00;82.60;;;;;;5034068;28;20105;-77
2022/02/22 05:11:06;;;;;;;16.77;3.03;;;10.00;82.60;;;;;;5034186;28;20036;-77
2022/02/22 05:13:31;;;;;;;15.75;3.35;;;10.00;82.60;;;;;;5034107;28;20501;-77
2022/02/22 05:15:57;;;;;;;17.33;4.07;;;10.00;82.60;;;;;;5033003;28;20021;-76
2022/02/22 05:18:23;;;;;;;15.18;3.58;;;9.90;82.60;;;;;;5033389;28;20025;-76
2022/02/22 05:20:54;;;;;;;14.30;3.35;;;10.00;82.60;;;;;;5032355;28;20029;-78
2022/02/22 05:23:31;;;;;;;14.07;2.95;;;10.00;82.50;;;;;;5033489;28;20017;-80
2022/02/22 05:25:57;;;;;;;13.52;3.10;;;9.90;82.60;;;;;;5032504;28;20025;-79
2022/02/22 05:28:23;;;;;;;12.82;3.00;;;10.00;82.50;;;;;;5032583;28;20544;-79
2022/02/22 05:30:50;;;;;;;11.20;2.90;;;10.00;82.50;;;;;;5032593;28;20044;-77
2022/02/22 05:33:16;;;;;;;15.15;3.63;;;10.00;82.50;;;;;;5023167;28;20036;-77
2022/02/22 05:35:46;;;;;;;12.27;3.15;;;9.90;82.50;;;;;;5025511;28;20037;-76
2022/02/22 05:38:11;;;;;;;12.45;2.70;;;10.00;82.50;;;;;;5030429;28;20080;-77
2022/02/22 05:40:37;;;;;;;11.63;3.08;;;9.90;82.60;;;;;;5025018;28;20053;-76
2022/02/22 05:43:03;;;;;;;14.27;3.22;;;10.00;83.20;;;;;;5029009;28;20044;-77
2022/02/22 05:45:28;;;;;;;13.82;3.15;;;10.00;82.50;;;;;;5029114;28;20549;-77
2022/02/22 05:47:54;;;;;;;14.43;3.08;;;10.00;82.60;;;;;;5029700;28;20022;-76
2022/02/22 05:50:20;;;;;;;11.20;2.92;;;9.90;82.50;;;;;;5029284;28;20545;-77
2022/02/22 05:52:45;;;;;;;17.35;3.50;;;9.90;82.50;;;;;;5029365;28;20061;-77
2022/02/22 05:55:11;;;;;;;13.02;2.83;;;10.00;82.60;;;;;;5029520;28;20033;-77
2022/02/22 05:57:38;;;;;;;16.05;3.10;;;10.00;82.60;;;;;;5029422;28;20156;-79
2022/02/22 06:00:06;;;;;;;12.90;3.10;;;9.90;82.50;;;;;;5028750;28;20022;-79
2022/02/22 06:02:32;;;;;;;12.82;3.00;;;9.90;82.60;;;;;;5029308;28;20033;-78
2022/02/22 06:04:57;;;;;;;18.92;3.30;;;9.90;82.70;;;;;;5028276;28;20030;-78
2022/02/22 06:07:23;;;;;;;15.63;3.38;;;9.90;81.90;;;;;;5028034;28;20028;-77
2022/02/22 06:09:49;;;;;;;14.38;3.72;;;9.90;80.70;;;;;;5026322;28;20061;-77
2022/02/22 06:12:14;;;;;;;16.30;4.40;;;9.90;80.80;;;;;;5027759;28;20513;-76
2022/02/22 06:14:40;;;;;;;14.73;3.17;;;9.90;81.10;;;;;;5019926;28;20034;-77
2022/02/22 06:17:05;;;;;;;15.80;3.72;;;9.90;81.40;;;;;;5026249;28;20044;-77
2022/02/22 06:19:31;;;;;;;14.75;3.45;;;9.90;81.50;;;;;;5023070;28;20028;-77
2022/02/22 06:21:56;;;;;;;14.98;3.25;;;9.90;81.60;;;;;;5028197;28;20029;-79
2022/02/22 06:24:23;;;;;;;15.93;3.15;;;9.90;81.60;;;;;;5014765;28;20024;-77
2022/02/22 06:26:48;;;;;;;12.88;3.05;;;9.90;81.60;;;;;;5013755;28;20032;-78
2022/02/22 06:29:15;;;;;;;13.52;2.83;;;9.90;81.60;;;;;;5025018;28;20404;-76
2022/02/22 06:31:40;;;;;;;11.48;3.40;;;9.90;81.60;;;;;;5044388;28;20518;-77
2022/02/22 06:34:06;;;;;;;14.32;3.63;;;9.90;81.60;;;;;;5045518;28;20071;-78
2022/02/22 06:36:35;;;;;;;15.48;3.25;;;9.90;81.60;;;;;;5026546;28;20919;-78
2022/02/22 06:39:01;;;;;;;15.05;3.00;;;9.90;81.60;;;;;;5026290;28;20124;-78
2022/02/22 06:41:27;;;;;;;13.07;2.97;;;9.90;81.60;;;;;;5025553;28;20102;-79
2022/02/22 06:43:53;;;;;;;13.80;3.20;;;9.90;81.50;;;;;;5030370;28;20033;-78
2022/02/22 06:46:18;;;;;;;12.40;2.90;;;9.90;81.60;;;;;;5017400;28;20013;-77
2022/02/22 06:48:44;;;;;;;10.77;2.90;;;9.90;81.70;;;;;;5017884;28;20022;-77
2022/02/22 06:51:10;;;;;;;14.80;3.55;;;9.90;81.60;;;;;;5020058;28;20032;-77
2022/02/22 06:53:35;;;;;;;14.50;3.17;;;9.90;81.60;;;;;;5012866;28;20105;-78
2022/02/22 06:56:02;;;;;;;14.00;3.33;;;9.90;81.50;;;;;;5010445;28;20038;-77
2022/02/22 06:58:28;;;;;;;14.18;3.10;;;10.00;81.50;;;;;;5009852;28;20108;-77
2022/02/22 07:00:55;;;;;;;13.40;3.22;;;10.00;81.50;;;;;;5011101;28;20105;-78
2022/02/22 07:03:21;;;;;;;13.95;3.17;;;10.00;81.40;;;;;;5011155;28;20061;-79
2022/02/22 07:05:47;;;;;;;13.65;3.40;;;10.00;81.40;;;;;;5010430;28;20459;-79
2022/02/22 07:08:13;;;;;;;12.23;3.10;;;10.00;81.40;;;;;;5010220;28;20030;-79
2022/02/22 07:10:38;;;;;;;14.20;3.38;;;10.00;81.40;;;;;;5011438;28;20034;-77
2022/02/22 07:13:04;;;;;;;13.10;2.97;;;10.00;81.40;;;;;;5011760;28;20052;-78
2022/02/22 07:15:29;;;;;;;13.35;3.45;;;10.00;81.30;;;;;;5014126;28;20434;-77
2022/02/22 07:18:02;;;;;;;14.60;3.50;;;10.10;81.40;;;;;;5014103;28;20081;-77
2022/02/22 07:20:28;;;;;;;11.07;2.80;;;10.10;81.50;;;;;;5014268;28;20121;-78
2022/02/22 07:22:57;;;;;;;14.27;3.47;;;10.00;81.60;;;;;;5014782;28;20164;-77
2022/02/22 07:25:24;;;;;;;14.60;2.85;;;10.00;81.70;;;;;;5012194;28;20032;-77
2022/02/22 07:27:50;;;;;;;14.73;3.42;;;10.00;81.80;;;;;;5011766;28;20041;-76
2022/02/22 07:30:17;;;;;;;11.63;2.85;;;10.00;81.80;;;;;;5011838;28;20034;-77
2022/02/22 07:32:43;;;;;;;12.48;3.15;;;10.10;81.80;;;;;;5027009;28;20075;-77
2022/02/22 07:35:11;;;;;;;13.02;3.00;;;10.00;81.80;;;;;;5034391;28;20026;-77
2022/02/22 07:37:37;;;;;;;16.02;3.83;;;10.10;81.90;;;;;;5034368;28;20033;-78
2022/02/22 07:40:04;;;;;;;12.93;2.95;;;10.10;81.80;;;;;;5034918;28;20017;-78
2022/02/22 07:42:29;;;;;;;14.82;3.38;;;10.10;81.70;;;;;;5034179;28;20026;-78
2022/02/22 07:44:55;;;;;;;17.13;3.55;;;10.00;81.80;;;;;;5035383;28;20022;-78
2022/02/22 07:47:20;;;;;;;15.88;2.95;;;10.00;81.80;;;;;;5034122;28;20083;-77
2022/02/22 07:49:46;;;;;;;13.38;3.28;;;10.00;81.80;;;;;;5033743;28;20028;-77
2022/02/22 07:52:12;;;;;;;15.85;3.60;;;10.00;81.80;;;;;;5034227;28;20033;-78
2022/02/22 07:54:37;;;;;;;14.25;3.28;;;10.00;81.80;;;;;;5033859;28;20507;-77
2022/02/22 07:57:03;;;;;;;13.63;2.95;;;10.00;81.90;;;;;;5033842;28;20025;-77
2022/02/22 07:59:29;;;;;;;14.95;2.95;;;10.00;81.80;;;;;;5033841;28;20433;-77
2022/02/22 08:01:55;;;;;;;16.27;3.63;;;10.00;81.90;;;;;;5035078;28;20029;-78
2022/02/22 08:04:20;;;;;;;14.18;3.35;;;10.00;81.90;;;;;;5035090;28;20479;-76
2022/02/22 08:06:46;;;;;;;13.68;3.17;;;10.00;81.90;;;;;;5034889;28;20112;-78
2022/02/22 08:09:12;;;;;;;11.65;2.78;;;10.00;81.90;;;;;;5033366;28;20022;-79
2022/02/22 08:11:37;;;;;;;11.45;3.28;;;10.10;81.90;;;;;;5033591;28;20035;-77
2022/02/22 08:14:03;;;;;;;13.23;3.38;;;10.00;81.90;;;;;;5033702;28;20066;-78
2022/02/22 08:16:29;;;;;;;12.90;3.30;;;10.00;81.90;;;;;;5034499;28;20394;-78
2022/02/22 08:18:55;;;;;;;12.50;3.13;;;10.00;81.90;;;;;;5034420;28;20088;-78
2022/02/22 08:21:24;;;;;;;12.35;3.33;;;10.00;82.00;;;;;;5034733;28;20021;-77
2022/02/22 08:23:49;;;;;;;15.45;3.33;;;10.10;82.00;;;;;;5034937;28;20025;-79
2022/02/22 08:26:16;;;;;;;12.43;2.90;;;10.00;82.10;;;;;;5036933;28;20028;-78
2022/02/22 08:28:42;;;;;;;11.93;2.90;;;10.00;82.00;;;;;;5036506;28;20029;-78
2022/02/22 08:31:08;;;;;;;10.25;2.85;;;10.00;82.00;;;;;;5035411;28;20025;-77
2022/02/22 08:33:34;;;;;;;11.75;3.03;;;10.10;82.10;;;;;;5036668;28;20021;-78
2022/02/22 08:35:59;;;;;;;13.48;3.28;;;10.10;82.10;;;;;;5034384;28;20053;-78
2022/02/22 08:38:25;;;;;;;12.00;2.88;;;10.10;82.10;;;;;;5034759;28;20033;-78
2022/02/22 08:40:51;;;;;;;14.27;3.75;;;10.10;82.10;;;;;;5035156;28;20021;-79
2022/02/22 08:43:17;;;;;;;13.02;2.78;;;10.10;82.10;;;;;;5035075;28;20022;-78
2022/02/22 08:45:44;;;;;;;11.98;2.83;;;10.10;82.10;;;;;;5036600;28;20395;-78
2022/02/22 08:48:10;;;;;;;14.57;3.45;;;10.10;82.20;;;;;;5034982;28;20029;-78
2022/02/22 08:50:36;;;;;;;14.70;3.53;;;10.10;82.30;;;;;;5034944;28;20566;-77
2022/02/22 08:53:02;;;;;;;13.13;2.92;;;10.00;82.30;;;;;;5035026;28;20033;-78
2022/02/22 08:55:28;;;;;;;11.77;2.70;;;10.00;82.40;;;;;;5035202;28;20032;-78
2022/02/22 08:57:56;;;;;;;12.77;3.63;;;10.00;82.40;;;;;;5036010;28;20022;-78
2022/02/22 09:00:23;;;;;;;15.82;3.47;;;10.10;82.40;;;;;;5034298;28;20026;-78
2022/02/22 09:02:53;;;;;;;10.82;3.03;;;10.00;82.40;;;;;;5034679;28;20442;-79
2022/02/22 09:05:19;;;;;;;13.43;3.35;;;10.00;82.50;;;;;;5034871;28;20028;-78
2022/02/22 09:07:45;;;;;;;15.55;3.38;;;10.00;82.50;;;;;;5034683;28;20057;-78
2022/02/22 09:10:13;;;;;;;14.85;3.60;;;10.00;82.50;;;;;;5035983;28;20026;-78
2022/02/22 09:12:40;;;;;;;11.02;3.03;;;10.00;82.60;;;;;;5034732;28;20030;-78
2022/02/22 09:15:08;;;;;;;10.48;2.50;;;10.00;82.50;;;;;;5034875;28;20048;-78
2022/02/22 09:17:33;;;;;;;14.32;3.10;;;10.00;82.50;;;;;;5082679;23;20046;-77
2022/02/22 09:20:01;;;;;;;14.00;3.08;;;10.00;82.50;;;;;;5013163;28;20133;-77
2022/02/22 09:22:27;;;;;;;13.68;3.08;;;10.10;82.50;;;;;;5029305;28;20033;-77
2022/02/22 09:24:52;;;;;;;13.05;3.13;;;10.10;82.30;;;;;;5028873;28;20415;-78
2022/02/22 09:27:18;;;;;;;13.73;3.20;;;10.20;82.30;;;;;;5028810;28;20030;-77
2022/02/22 09:29:44;;;;;;;13.13;3.22;;;10.20;82.20;;;;;;5013559;28;20087;-77
2022/02/22 09:32:09;;;;;;;11.20;2.80;;;10.20;82.10;;;;;;5013650;28;20100;-77
2022/02/22 09:34:35;;;;;;;13.43;3.17;;;10.20;82.10;;;;;;5013491;28;20040;-78
2022/02/22 09:37:03;;;;;;;14.68;3.15;;;10.20;82.20;;;;;;5012374;28;20097;-77
2022/02/22 09:39:30;;;;;;;13.35;2.95;;;10.20;82.20;;;;;;5012103;28;20118;-79
2022/02/22 09:41:55;;;;;;;14.20;2.80;;;10.20;82.30;;;;;;5012183;28;20022;-78
2022/02/22 09:44:21;;;;;;;16.05;3.60;;;10.20;82.30;;;;;;5012152;28;20033;-77
2022/02/22 09:46:47;;;;;;;12.75;3.53;;;10.20;82.20;;;;;;5013430;28;20423;-77
2022/02/22 09:49:13;;;;;;;13.27;3.30;;;10.20;82.20;;;;;;5012088;28;20103;-77
2022/02/22 09:51:39;;;;;;;15.30;3.10;;;10.20;82.10;;;;;;5013242;28;20475;-77
2022/02/22 09:54:04;;;;;;;12.00;3.10;;;10.20;82.00;;;;;;5012069;28;20056;-77
2022/02/22 09:56:30;;;;;;;11.13;3.30;;;10.30;81.80;;;;;;5013076;28;20033;-78
2022/02/22 09:58:55;;;;;;;13.98;3.28;;;10.40;81.70;;;;;;5013020;28;20061;-77
2022/02/22 10:01:22;;;;;;;12.27;2.90;;;10.40;81.40;;;;;;5011949;28;20030;-77
2022/02/22 10:03:58;;;;;;;11.95;3.05;;;10.50;81.40;;;;;;5012009;28;20022;-79
2022/02/22 10:06:25;;;;;;;13.93;2.95;;;10.40;81.30;;;;;;5011853;28;20053;-77
2022/02/22 10:08:56;;;;;;;12.65;3.28;;;10.50;81.40;;;;;;5012799;28;20041;-78
2022/02/22 10:11:22;;;;;;;13.32;3.47;;;10.50;81.50;;;;;;5013078;28;20502;-77
2022/02/22 10:13:48;;;;;;;12.45;3.13;;;10.40;81.50;;;;;;5012081;28;20084;-77
2022/02/22 10:16:14;;;;;;;11.57;3.33;;;10.40;81.60;;;;;;5011692;28;20487;-77
2022/02/22 10:18:48;;;;;;;10.35;2.78;;;10.40;81.80;;;;;;5011162;28;20037;-77
2022/02/22 10:21:15;;;;;;;15.32;3.20;;;10.40;81.90;;;;;;5009938;28;20438;-77
2022/02/22 10:23:40;;;;;;;12.68;2.90;;;10.30;82.00;;;;;;5012925;28;20540;-77
2022/02/22 10:26:06;;;;;;;14.93;3.53;;;10.30;82.10;;;;;;5009001;28;20133;-77
2022/02/22 10:28:32;;;;;;;12.57;3.15;;;10.30;82.30;;;;;;5010893;28;20108;-77
2022/02/22 10:30:57;;;;;;;16.23;3.65;;;10.30;82.30;;;;;;5012384;28;20036;-77
2022/02/22 10:33:27;;;;;;;14.07;3.75;;;10.30;82.40;;;;;;5011965;28;20030;-77
2022/02/22 10:35:56;;;;;;;10.82;2.90;;;10.30;82.40;;;;;;5013230;28;20033;-78
2022/02/22 10:38:28;;;;;;;13.77;3.47;;;10.30;82.40;;;;;;5011338;28;20025;-78
2022/02/22 10:40:58;;;;;;;12.35;3.13;;;10.30;82.50;;;;;;5011203;28;20569;-80
2022/02/22 10:43:25;;;;;;;11.80;3.10;;;10.30;82.50;;;;;;4992038;28;20030;-77
2022/02/22 10:45:53;;;;;;;12.88;3.35;;;10.30;82.60;;;;;;4992122;28;20414;-78
2022/02/22 10:48:25;;;;;;;13.38;3.38;;;10.30;82.70;;;;;;4990950;28;20057;-76
2022/02/22 10:50:52;;;;;;;;;;;10.30;82.80;;;;;;5010902;28;20030;-78
2022/02/22 10:53:17;;;;;;;12.02;3.20;;;10.30;82.90;;;;;;5012738;28;19905;-77
2022/02/22 10:55:43;;;;;;;9.30;3.03;;;10.20;82.90;;;;;;5011719;28;20030;-80
2022/02/22 10:58:09;;;;;;;11.13;3.10;;;10.20;82.90;;;;;;5011254;28;20033;-77
2022/02/22 11:00:35;;;;;;;13.30;3.47;;;10.20;83.00;;;;;;5010943;28;20125;-78
2022/02/22 11:03:03;;;;;;;14.85;3.58;;;10.20;83.00;;;;;;5012752;28;20755;-77
2022/02/22 11:05:29;;;;;;;14.38;3.08;;;10.20;83.10;;;;;;5011415;28;20018;-77
2022/02/22 11:07:56;;;;;;;11.27;3.10;;;10.20;83.20;;;;;;5011344;28;20026;-76
2022/02/22 11:10:28;;;;;;;14.73;3.72;;;10.20;83.30;;;;;;5012310;28;20080;-77
2022/02/22 11:12:59;;;;;;;12.48;3.92;;;10.20;83.30;;;;;;5011337;28;20034;-77
2022/02/22 11:15:37;;;;;;;13.38;3.38;;;10.20;83.30;;;;;;5012423;28;20081;-76
2022/02/22 11:18:24;;;;;;;12.73;3.03;;;10.20;83.40;;;;;;5010717;28;20391;-76
2022/02/22 11:20:51;;;;;;;20.00;3.90;;;10.20;83.20;;;;;;5011384;28;20029;-76
2022/02/22 11:23:26;;;;;;;14.00;3.42;;;10.20;83.00;;;;;;5010808;28;20060;-78
2022/02/22 11:26:09;;;;;;;16.83;3.40;;;10.20;83.10;;;;;;5009917;28;20480;-76
2022/02/22 11:28:41;;;;;;;17.17;3.42;;;10.20;83.40;;;;;;5010408;28;20060;-77
2022/02/22 11:31:11;;;;;;;15.55;3.58;;;10.20;83.50;;;;;;5011991;28;20106;-78
2022/02/22 11:33:39;;;;;;;17.13;4.40;;;10.20;83.50;;;;;;5010779;28;20037;-76
2022/02/22 11:36:08;;;;;;;16.85;3.85;;;10.20;83.50;;;;;;5011619;28;20029;-79
2022/02/22 11:38:45;;;;;;;14.65;3.05;;;10.20;83.50;;;;;;5010273;28;20030;-77
2022/02/22 11:41:20;;;;;;;13.77;3.15;;;10.20;83.60;;;;;;5011812;28;20030;-77
2022/02/22 11:44:01;;;;;;;16.40;3.35;;;10.20;83.60;;;;;;5010355;28;20092;-78
2022/02/22 11:46:47;;;;;;;14.23;3.70;;;10.20;83.60;;;;;;5010602;28;20092;-77
2022/02/22 11:49:28;;;;;;;13.85;3.17;;;10.20;83.60;;;;;;5010426;28;20022;-77
2022/02/22 11:52:07;;;;;;;14.23;3.38;;;10.20;83.50;;;;;;5011758;28;20026;-78
2022/02/22 11:54:32;;;;;;;13.52;3.25;;;10.20;83.50;;;;;;5011888;28;20026;-77
2022/02/22 11:57:07;;;;;;;14.68;3.63;;;10.10;83.40;;;;;;5010285;28;20372;-77
2022/02/22 11:59:44;;;;;;;15.88;3.10;;;10.20;83.50;;;;;;5013652;28;20018;-79
2022/02/22 12:02:09;;;;;;;12.63;3.28;;;10.10;83.40;;;;;;5014083;28;20040;-77
2022/02/22 12:04:35;;;;;;;13.85;3.25;;;10.10;83.40;;;;;;5015218;28;20026;-77
2022/02/22 12:07:01;;;;;;;14.35;3.05;;;10.20;83.60;;;;;;5013722;28;20157;-78
2022/02/22 12:09:38;;;;;;;13.90;3.08;;;10.10;83.40;;;;;;5013591;28;20032;-78
2022/02/22 12:12:08;;;;;;;10.50;3.15;;;10.10;83.40;;;;;;5015088;28;20088;-76
2022/02/22 12:14:35;;;;;;;13.88;3.00;;;10.10;83.40;;;;;;5013791;28;20466;-77
2022/02/22 12:17:12;;;;;;;11.57;3.33;;;10.10;83.50;;;;;;5013728;28;20026;-77
2022/02/22 12:19:40;;;;;;;10.80;2.78;;;10.10;83.40;;;;;;5015373;28;20499;-76
2022/02/22 12:22:06;;;;;;;9.75;3.17;;;10.10;83.40;;;;;;5014022;28;20446;-77
2022/02/22 12:24:32;;;;;;;13.85;3.10;;;10.10;83.50;;;;;;5015178;28;20053;-76
2022/02/22 12:27:08;;;;;;;10.88;2.67;;;10.20;83.60;;;;;;5013958;28;20029;-76
2022/02/22 12:29:34;;;;;;;14.77;2.88;;;10.10;83.70;;;;;;5015148;28;20038;-78
2022/02/22 12:32:01;;;;;;;11.57;3.10;;;10.10;83.80;;;;;;5014115;28;20117;-77
2022/02/22 12:34:26;;;;;;;12.45;2.97;;;10.20;83.90;;;;;;5015345;28;20079;-77
2022/02/22 12:36:55;;;;;;;11.45;2.88;;;10.20;83.90;;;;;;5014417;28;20029;-79